TimeEDT,TemperatureF,Dew PointF,Humidity,Sea Level PressureIn,VisibilityMPH,Wind Direction,Wind SpeedMPH,Gust SpeedMPH,PrecipitationIn,Events,Conditions,WindDirDegrees,DateUTC
12:53 AM,57.9,51.1,78,30.15,10.0,SW,3.5,-,N/A,,Clear,220,2012-10-05 04:53:00
1:53 AM,57.9,51.1,78,30.15,10.0,SSW,5.8,-,N/A,,Clear,200,2012-10-05 05:53:00
2:53 AM,57.9,51.1,78,30.14,10.0,South,4.6,-,N/A,,Clear,180,2012-10-05 06:53:00
3:53 AM,57.0,51.1,81,30.13,10.0,South,4.6,-,N/A,,Clear,180,2012-10-05 07:53:00
4:53 AM,55.0,51.1,86,30.14,10.0,SSE,6.9,-,N/A,,Clear,150,2012-10-05 08:53:00
5:53 AM,54.0,50.0,86,30.15,10.0,Calm,Calm,-,N/A,,Clear,0,2012-10-05 09:53:00
6:53 AM,55.0,51.1,86,30.14,10.0,South,3.5,-,N/A,,Clear,170,2012-10-05 10:53:00
7:53 AM,55.9,51.1,84,30.15,10.0,Calm,Calm,-,N/A,,Clear,0,2012-10-05 11:53:00
8:53 AM,60.1,53.1,78,30.15,10.0,Calm,Calm,-,N/A,,Clear,0,2012-10-05 12:53:00
9:53 AM,66.0,55.9,70,30.14,10.0,SSE,3.5,-,N/A,,Clear,150,2012-10-05 13:53:00
10:53 AM,73.0,55.9,55,30.14,10.0,WSW,8.1,-,N/A,,Clear,250,2012-10-05 14:53:00
11:53 AM,75.0,55.9,51,30.11,10.0,WSW,5.8,-,N/A,,Clear,240,2012-10-05 15:53:00
1:53 PM,77.0,54.0,45,30.05,10.0,West,9.2,-,N/A,,Partly Cloudy,270,2012-10-05 17:53:00
2:53 PM,75.9,54.0,46,30.04,10.0,SW,5.8,-,N/A,,Clear,230,2012-10-05 18:53:00
3:53 PM,78.1,53.1,42,30.02,10.0,SW,8.1,-,N/A,,Scattered Clouds,230,2012-10-05 19:53:00
4:53 PM,77.0,54.0,45,30.01,10.0,West,3.5,-,N/A,,Scattered Clouds,280,2012-10-05 20:53:00
5:53 PM,73.9,57.9,57,30.00,10.0,SSE,3.5,-,N/A,,Mostly Cloudy,160,2012-10-05 21:53:00
6:53 PM,69.1,55.9,63,29.99,10.0,SSE,3.5,-,N/A,,Partly Cloudy,160,2012-10-05 22:53:00
7:53 PM,64.9,57.9,78,30.00,10.0,South,3.5,-,N/A,,Mostly Cloudy,190,2012-10-05 23:53:00
8:53 PM,64.9,55.9,73,29.99,10.0,Calm,Calm,-,N/A,,Partly Cloudy,0,2012-10-06 00:53:00
9:53 PM,63.0,57.0,81,29.98,10.0,SSW,3.5,-,N/A,,Clear,200,2012-10-06 01:53:00
10:53 PM,61.0,57.0,87,29.96,10.0,Calm,Calm,-,N/A,,Clear,0,2012-10-06 02:53:00
11:53 PM,59.0,55.9,90,29.94,10.0,Calm,Calm,-,N/A,,Clear,0,2012-10-06 03:53:00